createdAt,value
2024-02-19T00:02:23.137Z,-5.18
2024-02-19T00:04:52.887Z,-5.17
2024-02-19T00:07:20.411Z,-5.20
2024-02-19T00:09:50.371Z,-5.19
2024-02-19T00:12:18.079Z,-5.15
2024-02-19T00:14:45.697Z,-5.16
2024-02-19T00:17:13.006Z,-5.13
2024-02-19T00:19:41.244Z,-5.13
2024-02-19T00:22:09.792Z,-5.16
2024-02-19T00:24:38.498Z,-5.27
2024-02-19T00:27:09.698Z,-5.28
2024-02-19T00:29:37.563Z,-5.24
2024-02-19T00:32:04.909Z,-5.24
2024-02-19T00:34:32.223Z,-5.24
2024-02-19T00:36:59.654Z,-5.21
2024-02-19T00:39:27.043Z,-5.19
2024-02-19T00:41:54.296Z,-5.21
2024-02-19T00:44:24.768Z,-5.19
2024-02-19T00:46:52.038Z,-5.25
2024-02-19T00:49:19.354Z,-5.28
2024-02-19T00:51:46.601Z,-5.26
2024-02-19T00:54:14.012Z,-5.29
2024-02-19T00:56:41.378Z,-5.32
2024-02-19T00:59:09.277Z,-5.37
2024-02-19T01:01:36.653Z,-5.39
2024-02-19T01:04:04.252Z,-5.39
2024-02-19T01:06:31.774Z,-5.40
2024-02-19T01:08:59.105Z,-5.41
2024-02-19T01:11:26.481Z,-5.42
2024-02-19T01:13:53.920Z,-5.45
2024-02-19T01:16:21.354Z,-5.50
2024-02-19T01:18:48.958Z,-5.48
2024-02-19T01:21:16.379Z,-5.51
2024-02-19T01:23:43.744Z,-5.50
2024-02-19T01:26:11.087Z,-5.54
2024-02-19T01:28:41.247Z,-5.58
2024-02-19T01:31:09.394Z,-5.60
2024-02-19T01:33:40.094Z,-5.55
2024-02-19T01:36:07.774Z,-5.55
2024-02-19T01:38:35.181Z,-5.56
2024-02-19T01:41:02.493Z,-5.54
2024-02-19T01:43:29.843Z,-5.59
2024-02-19T01:45:57.338Z,-5.59
2024-02-19T01:48:24.981Z,-5.62
2024-02-19T01:50:52.880Z,-5.62
2024-02-19T01:53:20.174Z,-5.66
2024-02-19T01:55:49.789Z,-5.73
2024-02-19T01:58:17.272Z,-5.78
2024-02-19T02:00:48.551Z,-5.81
2024-02-19T02:03:23.946Z,-5.83
2024-02-19T02:05:51.296Z,-5.85
2024-02-19T02:08:19.386Z,-5.84
2024-02-19T02:10:46.886Z,-5.85
2024-02-19T02:13:14.388Z,-5.83
2024-02-19T02:15:41.684Z,-5.80
2024-02-19T02:18:09.655Z,-5.75
2024-02-19T02:20:37.052Z,-5.76
2024-02-19T02:23:05.033Z,-5.71
2024-02-19T02:25:35.088Z,-5.71
2024-02-19T02:28:03.379Z,-5.73
2024-02-19T02:30:30.845Z,-5.73
2024-02-19T02:32:58.763Z,-5.71
2024-02-19T02:35:26.801Z,-5.71
2024-02-19T02:37:54.026Z,-5.73
2024-02-19T02:40:22.094Z,-5.71
2024-02-19T02:42:49.735Z,-5.72
2024-02-19T02:45:17.158Z,-5.78
2024-02-19T02:47:44.594Z,-5.80
2024-02-19T02:50:11.820Z,-5.78
2024-02-19T02:52:38.972Z,-5.76
2024-02-19T02:55:06.789Z,-5.80
2024-02-19T02:57:34.386Z,-5.89
2024-02-19T03:00:01.617Z,-5.92
2024-02-19T03:02:34.259Z,-5.93
2024-02-19T03:05:02.055Z,-5.90
2024-02-19T03:07:30.722Z,-5.91
2024-02-19T03:09:59.148Z,-5.96
2024-02-19T03:12:26.443Z,-5.98
2024-02-19T03:14:53.795Z,-5.99
2024-02-19T03:17:34.916Z,-5.98
2024-02-19T03:20:13.056Z,-6.03
2024-02-19T03:22:43.432Z,-6.08
2024-02-19T03:25:13.305Z,-6.12
2024-02-19T03:27:41.733Z,-6.16
2024-02-19T03:30:11.020Z,-6.17
2024-02-19T03:32:39.525Z,-6.23
2024-02-19T03:35:09.208Z,-6.32
2024-02-19T03:37:37.131Z,-6.35
2024-02-19T03:40:08.048Z,-6.41
2024-02-19T03:42:36.206Z,-6.44
2024-02-19T03:45:04.953Z,-6.46
2024-02-19T03:47:32.731Z,-6.45
2024-02-19T03:50:00.334Z,-6.48
2024-02-19T03:52:27.587Z,-6.49
2024-02-19T03:54:55.003Z,-6.50
2024-02-19T03:57:23.978Z,-6.51
2024-02-19T03:59:51.617Z,-6.51
2024-02-19T04:02:19.183Z,-6.54
2024-02-19T04:04:47.313Z,-6.60
2024-02-19T04:07:14.660Z,-6.61
2024-02-19T04:09:43.343Z,-6.61
2024-02-19T04:12:10.751Z,-6.62
2024-02-19T04:14:42.070Z,-6.63
2024-02-19T04:17:09.418Z,-6.69
2024-02-19T04:19:36.768Z,-6.70
2024-02-19T04:22:04.290Z,-6.72
2024-02-19T04:24:31.615Z,-6.71
2024-02-19T04:26:59.003Z,-6.74
2024-02-19T04:29:26.770Z,-6.77
2024-02-19T04:31:53.948Z,-6.80
2024-02-19T04:34:21.243Z,-6.85
2024-02-19T04:36:48.643Z,-6.81
2024-02-19T04:39:15.972Z,-6.80
2024-02-19T04:41:43.255Z,-6.82
2024-02-19T04:44:10.534Z,-6.84
2024-02-19T04:46:38.443Z,-6.86
2024-02-19T04:49:06.232Z,-6.85
2024-02-19T04:51:33.732Z,-6.88
2024-02-19T04:54:02.200Z,-6.87
2024-02-19T04:56:29.439Z,-6.81
2024-02-19T04:58:57.206Z,-6.82
2024-02-19T05:01:24.489Z,-6.80
2024-02-19T05:03:51.817Z,-6.74
2024-02-19T05:06:19.140Z,-6.72
2024-02-19T05:08:47.194Z,-6.69
2024-02-19T05:11:15.889Z,-6.68
2024-02-19T05:13:43.265Z,-6.71
2024-02-19T05:16:11.590Z,-6.78
2024-02-19T05:18:38.903Z,-6.78
2024-02-19T05:21:07.595Z,-6.81
2024-02-19T05:23:35.011Z,-6.81
2024-02-19T05:26:04.140Z,-6.80
2024-02-19T05:28:34.134Z,-6.76
2024-02-19T05:31:03.430Z,-6.74
2024-02-19T05:33:30.883Z,-6.69
2024-02-19T05:35:58.247Z,-6.68
2024-02-19T05:38:25.489Z,-6.71
2024-02-19T05:40:53.015Z,-6.75
2024-02-19T05:43:21.435Z,-6.69
2024-02-19T05:45:48.848Z,-6.54
2024-02-19T05:48:16.262Z,-6.51
2024-02-19T05:50:43.778Z,-6.56
2024-02-19T05:53:11.034Z,-6.56
2024-02-19T05:55:39.334Z,-6.55
2024-02-19T05:58:06.822Z,-6.48
2024-02-19T06:00:34.128Z,-6.37
2024-02-19T06:03:06.298Z,-6.32
2024-02-19T06:05:33.691Z,-6.24
2024-02-19T06:08:01.213Z,-6.22
2024-02-19T06:10:28.493Z,-6.18
2024-02-19T06:12:55.766Z,-6.11
2024-02-19T06:15:25.279Z,-6.07
2024-02-19T06:17:56.395Z,-5.96
2024-02-19T06:20:23.828Z,-6.02
2024-02-19T06:22:51.021Z,-5.99
2024-02-19T06:25:18.484Z,-5.94
2024-02-19T06:27:49.014Z,-5.93
2024-02-19T06:30:18.243Z,-5.87
2024-02-19T06:32:45.725Z,-5.85
2024-02-19T06:35:13.037Z,-5.76
2024-02-19T06:37:41.429Z,-5.70
2024-02-19T06:40:09.393Z,-5.62
2024-02-19T06:42:37.056Z,-5.61
2024-02-19T06:45:04.629Z,-5.56
2024-02-19T06:47:32.110Z,-5.54
2024-02-19T06:49:59.470Z,-5.59
2024-02-19T06:52:26.760Z,-5.65
2024-02-19T06:54:54.011Z,-5.63
2024-02-19T06:57:21.485Z,-5.68
2024-02-19T06:59:49.894Z,-5.89
2024-02-19T07:02:17.317Z,-6.00
2024-02-19T07:04:46.699Z,-6.01
2024-02-19T07:07:15.296Z,-5.95
2024-02-19T07:09:42.786Z,-5.86
2024-02-19T07:12:11.618Z,-5.87
2024-02-19T07:14:38.782Z,-5.93
2024-02-19T07:17:07.135Z,-5.82
2024-02-19T07:19:35.534Z,-5.63
2024-02-19T07:22:03.572Z,-5.64
2024-02-19T07:24:31.905Z,-5.68
2024-02-19T07:26:59.288Z,-5.61
2024-02-19T07:29:27.634Z,-5.50
2024-02-19T07:31:55.149Z,-5.44
2024-02-19T07:34:22.990Z,-5.27
2024-02-19T07:36:50.603Z,-5.15
2024-02-19T07:39:20.713Z,-4.98
2024-02-19T07:41:48.063Z,-4.92
2024-02-19T07:44:15.422Z,-4.94
2024-02-19T07:46:42.733Z,-5.00
2024-02-19T07:49:10.682Z,-5.04
2024-02-19T07:51:38.012Z,-5.18
2024-02-19T07:54:05.549Z,-5.17
2024-02-19T07:56:33.438Z,-5.19
2024-02-19T07:59:00.698Z,-5.04
2024-02-19T08:01:28.000Z,-4.93
2024-02-19T08:03:55.338Z,-4.91
2024-02-19T08:06:22.682Z,-4.83
2024-02-19T08:08:50.153Z,-4.67
2024-02-19T08:11:19.864Z,-4.54
2024-02-19T08:13:47.761Z,-4.33
2024-02-19T08:16:15.678Z,-4.17
2024-02-19T08:18:43.257Z,-4.11
2024-02-19T08:21:10.990Z,-4.20
2024-02-19T08:23:38.342Z,-4.07
2024-02-19T08:26:05.645Z,-3.93
2024-02-19T08:28:32.975Z,-3.99
2024-02-19T08:31:00.452Z,-4.08
2024-02-19T08:33:27.811Z,-4.15
2024-02-19T08:35:56.119Z,-4.09
2024-02-19T08:38:23.302Z,-3.97
2024-02-19T08:40:50.697Z,-3.85
2024-02-19T08:43:18.107Z,-3.61
2024-02-19T08:45:45.437Z,-3.49
2024-02-19T08:48:13.402Z,-3.36
2024-02-19T08:50:40.845Z,-3.14
2024-02-19T08:53:08.081Z,-3.16
2024-02-19T08:55:36.072Z,-3.20
2024-02-19T08:58:03.562Z,-3.33
2024-02-19T09:00:34.181Z,-3.43
2024-02-19T09:03:03.758Z,-3.68
2024-02-19T09:05:31.031Z,-3.71
2024-02-19T09:07:58.332Z,-3.49
2024-02-19T09:10:25.839Z,-3.22
2024-02-19T09:12:53.093Z,-3.02
2024-02-19T09:15:20.817Z,-2.82
2024-02-19T09:17:50.054Z,-2.69
2024-02-19T09:20:18.336Z,-2.88
2024-02-19T09:22:45.759Z,-3.30
2024-02-19T09:25:15.086Z,-3.27
2024-02-19T09:27:42.529Z,-3.07
2024-02-19T09:30:10.227Z,-2.81
2024-02-19T09:32:37.460Z,-2.71
2024-02-19T09:35:05.743Z,-2.87
2024-02-19T09:37:33.070Z,-2.48
2024-02-19T09:40:01.138Z,-2.34
2024-02-19T09:42:30.380Z,-2.35
2024-02-19T09:44:57.717Z,-2.41
2024-02-19T09:47:25.207Z,-2.77
2024-02-19T09:49:53.801Z,-3.07
2024-02-19T09:52:29.538Z,-2.80
2024-02-19T09:54:58.365Z,-2.57
2024-02-19T09:57:27.136Z,-2.60
2024-02-19T09:59:57.148Z,-2.52
2024-02-19T10:02:24.383Z,-2.27
2024-02-19T10:04:51.846Z,-2.09
2024-02-19T10:07:20.341Z,-2.01
2024-02-19T10:09:51.644Z,-0.75
2024-02-19T10:12:19.957Z,-0.98
2024-02-19T10:14:47.363Z,-1.46
2024-02-19T10:17:21.565Z,-1.72
2024-02-19T10:19:59.952Z,-1.63
2024-02-19T10:22:27.233Z,0.68
2024-02-19T10:24:54.563Z,0.59
2024-02-19T10:27:22.214Z,-0.17
2024-02-19T10:29:49.475Z,-0.14
2024-02-19T10:32:16.739Z,1.24
2024-02-19T10:34:43.990Z,1.53
2024-02-19T10:37:11.429Z,1.06
2024-02-19T10:39:38.882Z,0.18
2024-02-19T10:42:06.338Z,-1.19
2024-02-19T10:44:35.999Z,-2.08
2024-02-19T10:47:03.903Z,0.46
2024-02-19T10:49:31.245Z,2.86
2024-02-19T10:51:59.885Z,4.13
2024-02-19T10:54:29.839Z,4.27
2024-02-19T10:57:09.014Z,3.66
2024-02-19T10:59:40.284Z,4.77
2024-02-19T11:02:14.148Z,5.59
2024-02-19T11:04:42.723Z,5.93
2024-02-19T11:07:10.091Z,5.34
2024-02-19T11:09:38.623Z,4.91
2024-02-19T11:12:07.067Z,5.07
2024-02-19T11:14:37.567Z,5.39
2024-02-19T11:17:06.026Z,5.82
2024-02-19T11:19:40.864Z,5.56
2024-02-19T11:22:11.472Z,5.86
2024-02-19T11:24:40.787Z,6.17
2024-02-19T11:27:11.686Z,6.45
2024-02-19T11:29:46.890Z,6.59
2024-02-19T11:32:22.639Z,6.62
2024-02-19T11:34:56.903Z,6.83
2024-02-19T11:37:26.846Z,6.22
2024-02-19T11:39:55.326Z,6.29
2024-02-19T11:42:24.117Z,6.45
2024-02-19T11:44:51.579Z,6.44
2024-02-19T11:47:19.114Z,6.69
2024-02-19T11:49:47.740Z,6.64
2024-02-19T11:52:15.934Z,6.77
2024-02-19T11:54:43.863Z,7.24
2024-02-19T11:57:14.008Z,7.66
2024-02-19T11:59:41.953Z,7.90
2024-02-19T12:02:10.959Z,8.05
2024-02-19T12:04:40.753Z,8.02
2024-02-19T12:07:11.196Z,7.93
2024-02-19T12:09:39.716Z,7.56
2024-02-19T12:12:07.189Z,7.67
2024-02-19T12:14:34.633Z,7.64
2024-02-19T12:17:05.335Z,7.93
2024-02-19T12:19:33.465Z,8.11
2024-02-19T12:22:00.934Z,7.70
2024-02-19T12:24:28.358Z,7.53
2024-02-19T12:26:55.611Z,7.33
2024-02-19T12:29:23.890Z,6.69
2024-02-19T12:31:51.162Z,6.66
2024-02-19T12:34:18.561Z,6.05
2024-02-19T12:36:55.193Z,5.86
2024-02-19T12:39:22.467Z,5.88
2024-02-19T12:42:11.295Z,6.61
2024-02-19T12:44:42.392Z,6.87
2024-02-19T12:47:09.805Z,7.00
2024-02-19T12:49:39.816Z,7.29
2024-02-19T12:52:09.820Z,7.79
2024-02-19T12:54:37.671Z,7.90
2024-02-19T12:57:07.234Z,8.21
2024-02-19T12:59:34.534Z,8.38
2024-02-19T13:02:02.053Z,8.11
2024-02-19T13:04:29.264Z,8.00
2024-02-19T13:06:57.484Z,7.77
2024-02-19T13:09:26.395Z,7.41
2024-02-19T13:11:54.215Z,7.32
2024-02-19T13:14:22.191Z,7.40
2024-02-19T13:16:58.435Z,7.38
2024-02-19T13:19:33.855Z,7.40
2024-02-19T13:22:02.590Z,7.51
2024-02-19T13:24:30.118Z,7.26
2024-02-19T13:26:59.755Z,7.20
2024-02-19T13:29:27.140Z,7.33
2024-02-19T13:31:55.076Z,7.44
2024-02-19T13:34:22.698Z,7.34
2024-02-19T13:36:51.959Z,6.50
2024-02-19T13:39:22.638Z,6.17
2024-02-19T13:41:51.116Z,5.98
2024-02-19T13:44:18.659Z,5.61
2024-02-19T13:46:47.192Z,5.21
2024-02-19T13:49:15.951Z,5.21
2024-02-19T13:51:43.676Z,5.39
2024-02-19T13:54:11.294Z,4.03
2024-02-19T13:56:38.528Z,1.78
2024-02-19T13:59:08.568Z,0.54
2024-02-19T14:01:38.712Z,-0.50
2024-02-19T14:04:07.878Z,-1.08
2024-02-19T14:06:35.300Z,-1.26
2024-02-19T14:09:03.761Z,-1.54
2024-02-19T14:11:31.121Z,-1.72
2024-02-19T14:14:02.455Z,-2.10
2024-02-19T14:16:31.662Z,-2.36
2024-02-19T14:19:01.070Z,-2.61
2024-02-19T14:21:29.829Z,-2.69
2024-02-19T14:23:57.449Z,-2.80
2024-02-19T14:26:30.326Z,-2.91
2024-02-19T14:29:02.726Z,-3.12
2024-02-19T14:31:30.746Z,-3.22
2024-02-19T14:33:58.251Z,-3.31
2024-02-19T14:36:25.796Z,-3.39
2024-02-19T14:38:54.254Z,-3.51
2024-02-19T14:41:22.937Z,-3.49
2024-02-19T14:43:50.464Z,-3.57
2024-02-19T14:46:18.039Z,-3.65
2024-02-19T14:48:47.102Z,-3.74
2024-02-19T14:51:17.514Z,-3.83
2024-02-19T14:53:46.731Z,-3.90
2024-02-19T14:56:14.124Z,-3.98
2024-02-19T14:58:42.116Z,-4.10
2024-02-19T15:01:09.420Z,-4.11
2024-02-19T15:03:39.141Z,-4.21
2024-02-19T15:06:09.680Z,-4.27
2024-02-19T15:08:39.105Z,-4.36
2024-02-19T15:11:06.588Z,-4.48
2024-02-19T15:13:35.222Z,-4.50
2024-02-19T15:16:03.018Z,-4.50
2024-02-19T15:18:30.707Z,-4.61
2024-02-19T15:20:58.294Z,-4.72
2024-02-19T15:23:25.789Z,-4.85
2024-02-19T15:25:53.432Z,-4.87
2024-02-19T15:28:21.718Z,-4.93
2024-02-19T15:30:49.277Z,-4.91
2024-02-19T15:33:16.846Z,-5.10
2024-02-19T15:35:45.334Z,-5.20
2024-02-19T15:38:13.837Z,-5.35
2024-02-19T15:40:42.192Z,-5.45
2024-02-19T15:43:27.915Z,-5.45
2024-02-19T15:45:55.626Z,-5.45
2024-02-19T15:48:23.065Z,-5.67
2024-02-19T15:50:52.101Z,-5.73
2024-02-19T15:53:28.463Z,-5.77
2024-02-19T15:55:59.791Z,-5.79
2024-02-19T15:58:27.644Z,-5.88
2024-02-19T16:00:55.690Z,-5.94
2024-02-19T16:03:24.944Z,-6.06
2024-02-19T16:05:59.718Z,-6.16
2024-02-19T16:08:33.229Z,-6.24
2024-02-19T16:11:07.479Z,-6.36
2024-02-19T16:13:36.269Z,-6.41
2024-02-19T16:16:04.694Z,-6.48
2024-02-19T16:18:51.145Z,-6.45
2024-02-19T16:21:18.951Z,-6.56
2024-02-19T16:23:46.295Z,-6.62
2024-02-19T16:26:13.530Z,-6.68
2024-02-19T16:28:48.119Z,-6.80
2024-02-19T16:31:15.456Z,-6.78
2024-02-19T16:33:43.187Z,-6.82
2024-02-19T16:36:10.944Z,-6.82
2024-02-19T16:38:43.545Z,-6.84
2024-02-19T16:41:11.825Z,-6.77
2024-02-19T16:43:39.130Z,-6.90
2024-02-19T16:46:06.653Z,-6.98
2024-02-19T16:48:42.758Z,-6.94
2024-02-19T16:51:11.678Z,-6.97
2024-02-19T16:53:39.245Z,-7.11
2024-02-19T16:56:07.146Z,-7.29
2024-02-19T16:58:38.244Z,-7.33
2024-02-19T17:01:06.965Z,-7.30
2024-02-19T17:03:34.496Z,-7.32
2024-02-19T17:06:01.974Z,-7.36
2024-02-19T17:08:29.988Z,-7.57
2024-02-19T17:10:57.617Z,-7.69
2024-02-19T17:13:26.157Z,-7.66
2024-02-19T17:15:53.616Z,-7.56
2024-02-19T17:18:41.141Z,-7.32
2024-02-19T17:21:10.441Z,-7.21
2024-02-19T17:23:37.717Z,-7.06
2024-02-19T17:26:05.053Z,-6.94
2024-02-19T17:28:32.955Z,-6.93
2024-02-19T17:31:01.879Z,-6.95
2024-02-19T17:33:29.506Z,-6.92
2024-02-19T17:35:56.901Z,-6.92
2024-02-19T17:38:24.112Z,-6.93
2024-02-19T17:40:51.357Z,-7.03
2024-02-19T17:43:19.123Z,-7.20
2024-02-19T17:45:47.709Z,-7.32
2024-02-19T17:48:15.890Z,-7.39
2024-02-19T17:50:43.416Z,-7.61
2024-02-19T17:53:10.825Z,-7.70
2024-02-19T17:55:38.115Z,-7.77
2024-02-19T17:58:06.523Z,-7.86
2024-02-19T18:00:33.796Z,-7.97
2024-02-19T18:03:02.927Z,-8.07
2024-02-19T18:05:31.026Z,-8.11
2024-02-19T18:07:58.494Z,-8.17
2024-02-19T18:10:25.948Z,-8.26
2024-02-19T18:12:53.468Z,-8.31
2024-02-19T18:15:25.206Z,-8.31
2024-02-19T18:17:54.111Z,-8.33
2024-02-19T18:20:21.733Z,-8.36
2024-02-19T18:22:49.110Z,-8.38
2024-02-19T18:25:19.624Z,-8.39
2024-02-19T18:27:49.805Z,-8.36
2024-02-19T18:30:16.997Z,-8.34
2024-02-19T18:32:44.758Z,-8.30
2024-02-19T18:35:12.417Z,-8.31
2024-02-19T18:37:39.898Z,-8.27
2024-02-19T18:40:11.917Z,-8.37
2024-02-19T18:42:46.302Z,-8.47
2024-02-19T18:45:13.937Z,-8.51
2024-02-19T18:47:44.080Z,-8.49
2024-02-19T18:50:13.120Z,-8.43
2024-02-19T18:52:40.689Z,-8.40
2024-02-19T18:55:09.440Z,-8.43
2024-02-19T18:57:37.496Z,-8.50
2024-02-19T19:00:10.263Z,-8.56
2024-02-19T19:02:39.597Z,-8.61
2024-02-19T19:05:26.325Z,-8.69
2024-02-19T19:07:54.499Z,-8.82
2024-02-19T19:10:23.687Z,-8.91
2024-02-19T19:12:51.222Z,-8.90
2024-02-19T19:15:18.585Z,-9.05
2024-02-19T19:17:46.944Z,-9.12
2024-02-19T19:20:14.740Z,-9.22
2024-02-19T19:22:42.433Z,-9.33
2024-02-19T19:25:10.589Z,-9.41
2024-02-19T19:27:38.002Z,-9.51
2024-02-19T19:30:06.051Z,-9.47
2024-02-19T19:32:36.236Z,-9.42
2024-02-19T19:35:03.994Z,-9.58
2024-02-19T19:37:31.753Z,-9.69
2024-02-19T19:40:02.116Z,-9.79
2024-02-19T19:42:31.034Z,-9.92
2024-02-19T19:45:00.422Z,-10.02
2024-02-19T19:47:31.645Z,-9.96
2024-02-19T19:49:59.088Z,-9.91
2024-02-19T19:52:26.508Z,-9.80
2024-02-19T19:54:55.971Z,-9.82
2024-02-19T19:57:29.407Z,-9.75
2024-02-19T19:59:58.094Z,-9.75
2024-02-19T20:02:25.595Z,-9.82
2024-02-19T20:04:53.026Z,-9.91
2024-02-19T20:07:23.882Z,-9.96
2024-02-19T20:09:51.422Z,-9.93
2024-02-19T20:12:20.992Z,-9.98
2024-02-19T20:14:48.367Z,-10.04
2024-02-19T20:17:21.024Z,-10.07
2024-02-19T20:19:50.658Z,-10.13
2024-02-19T20:22:18.877Z,-10.22
2024-02-19T20:24:47.092Z,-10.29
2024-02-19T20:27:15.357Z,-10.21
2024-02-19T20:29:42.569Z,-10.26
2024-02-19T20:32:09.861Z,-10.37
2024-02-19T20:34:37.697Z,-10.41
2024-02-19T20:37:05.228Z,-10.50
2024-02-19T20:39:32.782Z,-10.54
2024-02-19T20:42:00.180Z,-10.51
2024-02-19T20:44:27.508Z,-10.55
2024-02-19T20:46:56.913Z,-10.59
2024-02-19T20:49:24.363Z,-10.62
2024-02-19T20:51:51.630Z,-10.57
2024-02-19T20:54:18.924Z,-10.51
2024-02-19T20:56:46.081Z,-10.47
2024-02-19T20:59:13.794Z,-10.48
2024-02-19T21:01:42.544Z,-10.49
2024-02-19T21:04:10.617Z,-10.50
2024-02-19T21:06:37.819Z,-10.56
2024-02-19T21:09:06.789Z,-10.63
2024-02-19T21:11:34.540Z,-10.56
2024-02-19T21:14:04.129Z,-10.55
2024-02-19T21:16:32.704Z,-10.51
2024-02-19T21:19:00.815Z,-10.50
2024-02-19T21:21:34.463Z,-10.56
2024-02-19T21:24:03.802Z,-10.58
2024-02-19T21:26:32.234Z,-10.59
2024-02-19T21:29:00.555Z,-10.64
2024-02-19T21:31:27.959Z,-10.63
2024-02-19T21:33:55.681Z,-10.67
2024-02-19T21:36:23.144Z,-10.69
2024-02-19T21:38:51.395Z,-10.66
2024-02-19T21:41:18.947Z,-10.70
2024-02-19T21:43:46.370Z,-10.70
2024-02-19T21:46:13.766Z,-10.70
2024-02-19T21:48:43.797Z,-10.78
2024-02-19T21:51:11.209Z,-10.77
2024-02-19T21:53:38.549Z,-10.72
2024-02-19T21:56:06.230Z,-10.76
2024-02-19T21:58:33.491Z,-10.70
2024-02-19T22:01:00.952Z,-10.72
2024-02-19T22:03:28.589Z,-10.78
2024-02-19T22:05:55.822Z,-10.78
2024-02-19T22:08:23.449Z,-10.76
2024-02-19T22:10:50.945Z,-10.76
2024-02-19T22:13:18.231Z,-10.80
2024-02-19T22:15:47.751Z,-10.80
2024-02-19T22:18:15.068Z,-10.84
2024-02-19T22:20:42.849Z,-10.92
2024-02-19T22:23:10.191Z,-10.95
2024-02-19T22:25:37.724Z,-11.00
2024-02-19T22:28:05.343Z,-11.04
2024-02-19T22:30:33.600Z,-11.06
2024-02-19T22:33:00.873Z,-11.11
2024-02-19T22:35:28.904Z,-11.10
2024-02-19T22:37:56.183Z,-11.14
2024-02-19T22:40:23.706Z,-11.14
2024-02-19T22:42:52.444Z,-11.11
2024-02-19T22:45:20.283Z,-11.06
2024-02-19T22:47:47.870Z,-11.06
2024-02-19T22:50:15.489Z,-11.05
2024-02-19T22:52:43.800Z,-11.17
2024-02-19T22:55:11.684Z,-11.21
2024-02-19T22:57:39.400Z,-11.20
2024-02-19T23:00:17.070Z,-11.26
2024-02-19T23:02:44.350Z,-11.47
2024-02-19T23:05:11.510Z,-11.71
2024-02-19T23:07:39.216Z,-11.72
2024-02-19T23:12:35.096Z,-11.79
2024-02-19T23:15:02.347Z,-11.78
2024-02-19T23:17:30.816Z,-11.69
2024-02-19T23:19:58.468Z,-11.66
2024-02-19T23:22:25.796Z,-11.60
2024-02-19T23:24:53.454Z,-11.70
2024-02-19T23:27:20.707Z,-11.68
2024-02-19T23:29:48.884Z,-11.63
2024-02-19T23:32:16.118Z,-11.69
2024-02-19T23:34:43.349Z,-11.77
2024-02-19T23:37:10.976Z,-11.90
2024-02-19T23:39:39.357Z,-11.96
2024-02-19T23:42:06.835Z,-11.85
2024-02-19T23:44:35.053Z,-11.92
2024-02-19T23:47:02.421Z,-11.88
2024-02-19T23:49:29.824Z,-11.89
2024-02-19T23:51:57.303Z,-11.96
2024-02-19T23:54:24.695Z,-12.02
2024-02-19T23:56:51.932Z,-12.01
2024-02-19T23:59:19.977Z,-11.93
